sensor_id;sensor_type;location;lat;lon;timestamp;temperature;humidity
28087;DHT22;15392;48.912;8.380;2023-12-07T00:01:00;9.70;58.00
28087;DHT22;15392;48.912;8.380;2023-12-07T00:03:46;9.70;57.90
28087;DHT22;15392;48.912;8.380;2023-12-07T00:06:32;9.70;57.90
28087;DHT22;15392;48.912;8.380;2023-12-07T00:09:18;9.70;57.80
28087;DHT22;15392;48.912;8.380;2023-12-07T00:12:07;9.70;57.80
28087;DHT22;15392;48.912;8.380;2023-12-07T00:14:53;9.70;57.70
28087;DHT22;15392;48.912;8.380;2023-12-07T00:17:39;9.70;57.70
28087;DHT22;15392;48.912;8.380;2023-12-07T00:20:25;9.70;57.70
28087;DHT22;15392;48.912;8.380;2023-12-07T00:23:11;9.70;57.70
28087;DHT22;15392;48.912;8.380;2023-12-07T00:25:57;9.70;57.60
28087;DHT22;15392;48.912;8.380;2023-12-07T00:28:43;9.70;57.60
28087;DHT22;15392;48.912;8.380;2023-12-07T00:31:29;9.70;57.60
28087;DHT22;15392;48.912;8.380;2023-12-07T00:34:15;9.70;57.50
28087;DHT22;15392;48.912;8.380;2023-12-07T00:37:04;9.70;57.50
28087;DHT22;15392;48.912;8.380;2023-12-07T00:39:50;9.70;57.40
28087;DHT22;15392;48.912;8.380;2023-12-07T00:42:36;9.70;57.40
28087;DHT22;15392;48.912;8.380;2023-12-07T00:45:23;9.70;57.40
28087;DHT22;15392;48.912;8.380;2023-12-07T00:48:10;9.70;57.40
28087;DHT22;15392;48.912;8.380;2023-12-07T00:50:55;9.70;57.50
28087;DHT22;15392;48.912;8.380;2023-12-07T00:53:41;9.70;57.50
28087;DHT22;15392;48.912;8.380;2023-12-07T00:56:28;9.70;57.50
28087;DHT22;15392;48.912;8.380;2023-12-07T00:59:14;9.70;57.50
28087;DHT22;15392;48.912;8.380;2023-12-07T01:02:01;9.60;57.50
28087;DHT22;15392;48.912;8.380;2023-12-07T01:04:47;9.60;57.40
28087;DHT22;15392;48.912;8.380;2023-12-07T01:07:33;9.60;57.40
28087;DHT22;15392;48.912;8.380;2023-12-07T01:10:19;9.60;57.40
28087;DHT22;15392;48.912;8.380;2023-12-07T01:13:05;9.60;57.70
28087;DHT22;15392;48.912;8.380;2023-12-07T01:15:51;9.60;57.50
28087;DHT22;15392;48.912;8.380;2023-12-07T01:18:37;9.60;57.40
28087;DHT22;15392;48.912;8.380;2023-12-07T01:21:23;9.60;57.50
28087;DHT22;15392;48.912;8.380;2023-12-07T01:24:09;9.60;57.50
28087;DHT22;15392;48.912;8.380;2023-12-07T01:26:55;9.60;57.50
28087;DHT22;15392;48.912;8.380;2023-12-07T01:29:41;9.60;57.50
28087;DHT22;15392;48.912;8.380;2023-12-07T01:32:27;9.60;57.50
28087;DHT22;15392;48.912;8.380;2023-12-07T01:35:13;9.60;57.50
28087;DHT22;15392;48.912;8.380;2023-12-07T01:38:00;9.60;57.50
28087;DHT22;15392;48.912;8.380;2023-12-07T01:40:46;9.60;57.50
28087;DHT22;15392;48.912;8.380;2023-12-07T01:43:32;9.60;57.50
28087;DHT22;15392;48.912;8.380;2023-12-07T01:46:18;9.60;57.50
28087;DHT22;15392;48.912;8.380;2023-12-07T01:49:04;9.60;57.50
28087;DHT22;15392;48.912;8.380;2023-12-07T01:51:50;9.60;57.50
28087;DHT22;15392;48.912;8.380;2023-12-07T01:54:37;9.60;57.50
28087;DHT22;15392;48.912;8.380;2023-12-07T01:57:25;9.60;57.60
28087;DHT22;15392;48.912;8.380;2023-12-07T02:00:12;9.60;57.70
28087;DHT22;15392;48.912;8.380;2023-12-07T02:03:01;9.60;57.80
28087;DHT22;15392;48.912;8.380;2023-12-07T02:05:50;9.50;57.50
28087;DHT22;15392;48.912;8.380;2023-12-07T02:08:37;9.50;57.40
28087;DHT22;15392;48.912;8.380;2023-12-07T02:11:26;9.50;57.40
28087;DHT22;15392;48.912;8.380;2023-12-07T02:14:12;9.40;57.30
28087;DHT22;15392;48.912;8.380;2023-12-07T02:17:21;9.40;57.30
28087;DHT22;15392;48.912;8.380;2023-12-07T02:23:04;9.30;57.30
28087;DHT22;15392;48.912;8.380;2023-12-07T02:25:54;9.20;57.20
28087;DHT22;15392;48.912;8.380;2023-12-07T02:28:40;9.20;57.20
28087;DHT22;15392;48.912;8.380;2023-12-07T02:31:27;9.20;57.20
28087;DHT22;15392;48.912;8.380;2023-12-07T02:34:13;9.10;57.10
28087;DHT22;15392;48.912;8.380;2023-12-07T02:37:01;9.00;57.10
28087;DHT22;15392;48.912;8.380;2023-12-07T02:39:49;9.00;57.20
28087;DHT22;15392;48.912;8.380;2023-12-07T02:42:38;8.90;57.20
28087;DHT22;15392;48.912;8.380;2023-12-07T02:45:26;8.80;57.20
28087;DHT22;15392;48.912;8.380;2023-12-07T02:48:13;8.80;57.20
28087;DHT22;15392;48.912;8.380;2023-12-07T02:50:59;8.70;57.20
28087;DHT22;15392;48.912;8.380;2023-12-07T02:53:45;8.70;57.20
28087;DHT22;15392;48.912;8.380;2023-12-07T02:56:31;8.60;57.10
28087;DHT22;15392;48.912;8.380;2023-12-07T02:59:17;8.50;57.10
28087;DHT22;15392;48.912;8.380;2023-12-07T03:02:03;8.50;57.20
28087;DHT22;15392;48.912;8.380;2023-12-07T03:04:49;8.40;57.10
28087;DHT22;15392;48.912;8.380;2023-12-07T03:07:35;8.30;57.20
28087;DHT22;15392;48.912;8.380;2023-12-07T03:10:21;8.30;57.30
28087;DHT22;15392;48.912;8.380;2023-12-07T03:13:07;8.20;57.30
28087;DHT22;15392;48.912;8.380;2023-12-07T03:15:53;8.10;57.40
28087;DHT22;15392;48.912;8.380;2023-12-07T03:18:39;8.10;57.60
28087;DHT22;15392;48.912;8.380;2023-12-07T03:21:25;8.10;57.70
28087;DHT22;15392;48.912;8.380;2023-12-07T03:24:11;8.10;57.70
28087;DHT22;15392;48.912;8.380;2023-12-07T03:26:57;8.00;57.60
28087;DHT22;15392;48.912;8.380;2023-12-07T03:29:43;8.00;57.50
28087;DHT22;15392;48.912;8.380;2023-12-07T03:32:29;7.90;57.40
28087;DHT22;15392;48.912;8.380;2023-12-07T03:35:15;7.90;57.40
28087;DHT22;15392;48.912;8.380;2023-12-07T03:38:02;7.80;57.30
28087;DHT22;15392;48.912;8.380;2023-12-07T03:40:48;7.70;57.30
28087;DHT22;15392;48.912;8.380;2023-12-07T03:43:35;7.70;57.40
28087;DHT22;15392;48.912;8.380;2023-12-07T03:46:21;7.60;57.40
28087;DHT22;15392;48.912;8.380;2023-12-07T03:49:07;7.60;57.50
28087;DHT22;15392;48.912;8.380;2023-12-07T03:51:54;7.50;57.50
28087;DHT22;15392;48.912;8.380;2023-12-07T03:54:40;7.50;57.50
28087;DHT22;15392;48.912;8.380;2023-12-07T03:57:26;7.50;57.60
28087;DHT22;15392;48.912;8.380;2023-12-07T04:00:12;7.40;57.70
28087;DHT22;15392;48.912;8.380;2023-12-07T04:02:59;7.40;57.70
28087;DHT22;15392;48.912;8.380;2023-12-07T04:05:45;7.40;57.70
28087;DHT22;15392;48.912;8.380;2023-12-07T04:08:31;7.30;57.70
28087;DHT22;15392;48.912;8.380;2023-12-07T04:11:17;7.30;57.80
28087;DHT22;15392;48.912;8.380;2023-12-07T04:14:05;7.30;57.90
28087;DHT22;15392;48.912;8.380;2023-12-07T04:16:51;7.20;57.90
28087;DHT22;15392;48.912;8.380;2023-12-07T04:19:37;7.20;57.90
28087;DHT22;15392;48.912;8.380;2023-12-07T04:22:23;7.20;57.80
28087;DHT22;15392;48.912;8.380;2023-12-07T04:25:09;7.20;57.60
28087;DHT22;15392;48.912;8.380;2023-12-07T04:27:55;7.10;57.60
28087;DHT22;15392;48.912;8.380;2023-12-07T04:30:41;7.10;57.70
28087;DHT22;15392;48.912;8.380;2023-12-07T04:33:27;7.10;57.70
28087;DHT22;15392;48.912;8.380;2023-12-07T04:36:13;7.00;57.70
28087;DHT22;15392;48.912;8.380;2023-12-07T04:38:59;7.00;57.80
28087;DHT22;15392;48.912;8.380;2023-12-07T04:41:45;6.90;57.80
28087;DHT22;15392;48.912;8.380;2023-12-07T04:44:35;6.90;57.80
28087;DHT22;15392;48.912;8.380;2023-12-07T04:47:21;6.90;57.90
28087;DHT22;15392;48.912;8.380;2023-12-07T04:50:07;6.90;57.90
28087;DHT22;15392;48.912;8.380;2023-12-07T04:52:54;6.80;57.90
28087;DHT22;15392;48.912;8.380;2023-12-07T04:55:40;6.80;58.00
28087;DHT22;15392;48.912;8.380;2023-12-07T04:58:28;6.80;58.10
28087;DHT22;15392;48.912;8.380;2023-12-07T05:01:14;6.70;58.10
28087;DHT22;15392;48.912;8.380;2023-12-07T05:04:01;6.70;58.10
28087;DHT22;15392;48.912;8.380;2023-12-07T05:06:49;6.70;58.10
28087;DHT22;15392;48.912;8.380;2023-12-07T05:09:35;6.70;58.20
28087;DHT22;15392;48.912;8.380;2023-12-07T05:12:21;6.70;58.20
28087;DHT22;15392;48.912;8.380;2023-12-07T05:15:08;6.60;58.10
28087;DHT22;15392;48.912;8.380;2023-12-07T05:17:55;6.60;58.10
28087;DHT22;15392;48.912;8.380;2023-12-07T05:20:41;6.60;58.00
28087;DHT22;15392;48.912;8.380;2023-12-07T05:23:27;6.60;58.10
28087;DHT22;15392;48.912;8.380;2023-12-07T05:26:13;6.60;58.10
28087;DHT22;15392;48.912;8.380;2023-12-07T05:28:59;6.50;58.10
28087;DHT22;15392;48.912;8.380;2023-12-07T05:31:45;6.50;58.10
28087;DHT22;15392;48.912;8.380;2023-12-07T05:34:34;6.50;58.10
28087;DHT22;15392;48.912;8.380;2023-12-07T05:37:21;6.50;58.20
28087;DHT22;15392;48.912;8.380;2023-12-07T05:40:08;6.40;58.20
28087;DHT22;15392;48.912;8.380;2023-12-07T05:42:55;6.40;58.30
28087;DHT22;15392;48.912;8.380;2023-12-07T05:45:41;6.40;58.30
28087;DHT22;15392;48.912;8.380;2023-12-07T05:48:27;6.40;58.30
28087;DHT22;15392;48.912;8.380;2023-12-07T05:51:17;6.40;58.20
28087;DHT22;15392;48.912;8.380;2023-12-07T05:54:03;6.30;58.20
28087;DHT22;15392;48.912;8.380;2023-12-07T05:56:49;6.30;58.20
28087;DHT22;15392;48.912;8.380;2023-12-07T05:59:39;6.30;58.30
28087;DHT22;15392;48.912;8.380;2023-12-07T06:02:25;6.30;58.30
28087;DHT22;15392;48.912;8.380;2023-12-07T06:05:12;6.30;58.30
28087;DHT22;15392;48.912;8.380;2023-12-07T06:07:58;6.20;58.40
28087;DHT22;15392;48.912;8.380;2023-12-07T06:10:44;6.20;58.40
28087;DHT22;15392;48.912;8.380;2023-12-07T06:13:30;6.20;58.40
28087;DHT22;15392;48.912;8.380;2023-12-07T06:16:16;6.20;58.30
28087;DHT22;15392;48.912;8.380;2023-12-07T06:19:04;6.20;58.30
28087;DHT22;15392;48.912;8.380;2023-12-07T06:21:50;6.20;58.30
28087;DHT22;15392;48.912;8.380;2023-12-07T06:24:36;6.20;58.30
28087;DHT22;15392;48.912;8.380;2023-12-07T06:27:22;6.20;58.40
28087;DHT22;15392;48.912;8.380;2023-12-07T06:30:08;6.20;58.40
28087;DHT22;15392;48.912;8.380;2023-12-07T06:32:54;6.10;58.40
28087;DHT22;15392;48.912;8.380;2023-12-07T06:35:40;6.10;58.40
28087;DHT22;15392;48.912;8.380;2023-12-07T06:38:26;6.10;58.50
28087;DHT22;15392;48.912;8.380;2023-12-07T06:41:13;6.10;58.50
28087;DHT22;15392;48.912;8.380;2023-12-07T06:44:00;6.00;58.50
28087;DHT22;15392;48.912;8.380;2023-12-07T06:46:46;6.00;58.50
28087;DHT22;15392;48.912;8.380;2023-12-07T06:49:32;6.10;58.60
28087;DHT22;15392;48.912;8.380;2023-12-07T06:52:18;6.00;58.70
28087;DHT22;15392;48.912;8.380;2023-12-07T06:55:04;6.00;58.70
28087;DHT22;15392;48.912;8.380;2023-12-07T06:57:51;6.10;58.70
28087;DHT22;15392;48.912;8.380;2023-12-07T07:00:37;6.00;58.60
28087;DHT22;15392;48.912;8.380;2023-12-07T07:03:23;6.00;58.60
28087;DHT22;15392;48.912;8.380;2023-12-07T07:06:09;6.10;58.60
28087;DHT22;15392;48.912;8.380;2023-12-07T07:08:55;6.10;58.70
28087;DHT22;15392;48.912;8.380;2023-12-07T07:11:41;6.00;58.60
28087;DHT22;15392;48.912;8.380;2023-12-07T07:14:28;6.10;58.50
28087;DHT22;15392;48.912;8.380;2023-12-07T07:17:14;6.10;58.50
28087;DHT22;15392;48.912;8.380;2023-12-07T07:20:01;6.10;58.50
28087;DHT22;15392;48.912;8.380;2023-12-07T07:22:47;6.10;58.60
28087;DHT22;15392;48.912;8.380;2023-12-07T07:25:33;6.10;58.50
28087;DHT22;15392;48.912;8.380;2023-12-07T07:28:19;6.10;58.60
28087;DHT22;15392;48.912;8.380;2023-12-07T07:31:06;6.20;58.70
28087;DHT22;15392;48.912;8.380;2023-12-07T07:33:52;6.20;58.70
28087;DHT22;15392;48.912;8.380;2023-12-07T07:36:40;6.20;58.60
28087;DHT22;15392;48.912;8.380;2023-12-07T07:39:26;6.20;58.60
28087;DHT22;15392;48.912;8.380;2023-12-07T07:42:12;6.20;58.60
28087;DHT22;15392;48.912;8.380;2023-12-07T07:44:58;6.20;58.60
28087;DHT22;15392;48.912;8.380;2023-12-07T07:47:44;6.20;58.40
28087;DHT22;15392;48.912;8.380;2023-12-07T07:50:30;6.20;58.30
28087;DHT22;15392;48.912;8.380;2023-12-07T07:53:16;6.20;58.20
28087;DHT22;15392;48.912;8.380;2023-12-07T07:56:02;6.20;58.20
28087;DHT22;15392;48.912;8.380;2023-12-07T07:58:48;6.20;58.20
28087;DHT22;15392;48.912;8.380;2023-12-07T08:01:35;6.20;58.20
28087;DHT22;15392;48.912;8.380;2023-12-07T08:04:21;6.20;58.20
28087;DHT22;15392;48.912;8.380;2023-12-07T08:07:06;6.20;58.10
28087;DHT22;15392;48.912;8.380;2023-12-07T08:09:53;6.20;58.00
28087;DHT22;15392;48.912;8.380;2023-12-07T08:12:40;6.20;58.10
28087;DHT22;15392;48.912;8.380;2023-12-07T08:15:26;6.20;58.10
28087;DHT22;15392;48.912;8.380;2023-12-07T08:18:12;6.20;58.10
28087;DHT22;15392;48.912;8.380;2023-12-07T08:21:00;6.20;58.10
28087;DHT22;15392;48.912;8.380;2023-12-07T08:23:46;6.20;58.10
28087;DHT22;15392;48.912;8.380;2023-12-07T08:26:32;6.20;58.10
28087;DHT22;15392;48.912;8.380;2023-12-07T08:29:18;6.20;58.20
28087;DHT22;15392;48.912;8.380;2023-12-07T08:32:05;6.30;58.40
28087;DHT22;15392;48.912;8.380;2023-12-07T08:34:52;6.30;58.40
28087;DHT22;15392;48.912;8.380;2023-12-07T08:37:38;6.30;58.40
28087;DHT22;15392;48.912;8.380;2023-12-07T08:40:24;6.30;58.40
28087;DHT22;15392;48.912;8.380;2023-12-07T08:43:10;6.30;58.40
28087;DHT22;15392;48.912;8.380;2023-12-07T08:45:57;6.40;58.40
28087;DHT22;15392;48.912;8.380;2023-12-07T08:48:43;6.40;58.30
28087;DHT22;15392;48.912;8.380;2023-12-07T08:51:29;6.50;58.50
28087;DHT22;15392;48.912;8.380;2023-12-07T08:54:15;6.60;59.10
28087;DHT22;15392;48.912;8.380;2023-12-07T08:57:02;6.80;60.10
28087;DHT22;15392;48.912;8.380;2023-12-07T08:59:48;7.10;61.10
28087;DHT22;15392;48.912;8.380;2023-12-07T09:02:34;7.40;60.90
28087;DHT22;15392;48.912;8.380;2023-12-07T09:05:20;7.70;60.10
28087;DHT22;15392;48.912;8.380;2023-12-07T09:08:06;7.90;59.30
28087;DHT22;15392;48.912;8.380;2023-12-07T09:10:52;8.10;58.80
28087;DHT22;15392;48.912;8.380;2023-12-07T09:13:39;8.20;58.50
28087;DHT22;15392;48.912;8.380;2023-12-07T09:16:25;8.40;58.40
28087;DHT22;15392;48.912;8.380;2023-12-07T09:19:12;8.60;58.70
28087;DHT22;15392;48.912;8.380;2023-12-07T09:21:59;9.00;59.50
28087;DHT22;15392;48.912;8.380;2023-12-07T09:24:45;9.40;60.40
28087;DHT22;15392;48.912;8.380;2023-12-07T09:27:32;9.90;60.80
28087;DHT22;15392;48.912;8.380;2023-12-07T09:30:19;10.50;60.80
28087;DHT22;15392;48.912;8.380;2023-12-07T09:33:05;11.10;60.60
28087;DHT22;15392;48.912;8.380;2023-12-07T09:35:51;11.60;59.90
28087;DHT22;15392;48.912;8.380;2023-12-07T09:38:37;12.20;59.40
28087;DHT22;15392;48.912;8.380;2023-12-07T09:41:23;12.60;58.70
28087;DHT22;15392;48.912;8.380;2023-12-07T09:44:10;13.10;58.00
28087;DHT22;15392;48.912;8.380;2023-12-07T09:46:56;13.50;57.50
28087;DHT22;15392;48.912;8.380;2023-12-07T09:49:42;13.80;57.10
28087;DHT22;15392;48.912;8.380;2023-12-07T09:52:28;14.20;56.70
28087;DHT22;15392;48.912;8.380;2023-12-07T09:55:16;14.50;56.30
28087;DHT22;15392;48.912;8.380;2023-12-07T09:58:06;14.90;55.90
28087;DHT22;15392;48.912;8.380;2023-12-07T10:00:52;15.20;55.50
28087;DHT22;15392;48.912;8.380;2023-12-07T10:03:38;15.50;55.40
28087;DHT22;15392;48.912;8.380;2023-12-07T10:06:24;15.70;54.70
28087;DHT22;15392;48.912;8.380;2023-12-07T10:09:11;15.80;54.00
28087;DHT22;15392;48.912;8.380;2023-12-07T10:12:06;15.80;53.10
28087;DHT22;15392;48.912;8.380;2023-12-07T10:14:53;15.70;51.50
28087;DHT22;15392;48.912;8.380;2023-12-07T10:17:56;15.50;51.50
28087;DHT22;15392;48.912;8.380;2023-12-07T10:20:45;15.20;50.30
28087;DHT22;15392;48.912;8.380;2023-12-07T10:23:32;14.90;50.90
28087;DHT22;15392;48.912;8.380;2023-12-07T10:26:18;14.50;50.70
28087;DHT22;15392;48.912;8.380;2023-12-07T10:29:07;14.20;50.80
28087;DHT22;15392;48.912;8.380;2023-12-07T10:32:01;13.90;51.00
28087;DHT22;15392;48.912;8.380;2023-12-07T10:34:49;13.60;51.20
28087;DHT22;15392;48.912;8.380;2023-12-07T10:37:35;13.30;51.50
28087;DHT22;15392;48.912;8.380;2023-12-07T10:40:22;13.00;51.90
28087;DHT22;15392;48.912;8.380;2023-12-07T10:43:08;12.80;52.30
28087;DHT22;15392;48.912;8.380;2023-12-07T10:45:54;12.60;53.20
28087;DHT22;15392;48.912;8.380;2023-12-07T10:48:40;12.40;52.60
28087;DHT22;15392;48.912;8.380;2023-12-07T10:51:45;12.30;52.80
28087;DHT22;15392;48.912;8.380;2023-12-07T10:55:03;12.10;53.10
28087;DHT22;15392;48.912;8.380;2023-12-07T10:57:52;11.90;53.60
28087;DHT22;15392;48.912;8.380;2023-12-07T11:00:45;11.80;53.40
28087;DHT22;15392;48.912;8.380;2023-12-07T11:03:35;11.70;53.40
28087;DHT22;15392;48.912;8.380;2023-12-07T11:06:23;11.60;53.70
28087;DHT22;15392;48.912;8.380;2023-12-07T11:09:22;11.40;53.80
28087;DHT22;15392;48.912;8.380;2023-12-07T11:12:19;11.40;53.90
28087;DHT22;15392;48.912;8.380;2023-12-07T11:15:18;11.30;54.20
28087;DHT22;15392;48.912;8.380;2023-12-07T11:18:05;11.20;54.40
28087;DHT22;15392;48.912;8.380;2023-12-07T11:20:53;11.10;54.60
28087;DHT22;15392;48.912;8.380;2023-12-07T11:23:41;11.10;54.80
28087;DHT22;15392;48.912;8.380;2023-12-07T11:26:27;11.00;54.90
28087;DHT22;15392;48.912;8.380;2023-12-07T11:29:13;11.00;55.20
28087;DHT22;15392;48.912;8.380;2023-12-07T11:32:04;11.00;55.40
28087;DHT22;15392;48.912;8.380;2023-12-07T11:34:52;10.90;55.40
28087;DHT22;15392;48.912;8.380;2023-12-07T11:38:02;10.90;55.40
28087;DHT22;15392;48.912;8.380;2023-12-07T11:40:57;10.90;55.20
28087;DHT22;15392;48.912;8.380;2023-12-07T11:43:44;10.90;55.40
28087;DHT22;15392;48.912;8.380;2023-12-07T11:46:31;10.80;55.50
28087;DHT22;15392;48.912;8.380;2023-12-07T11:49:17;10.80;55.50
28087;DHT22;15392;48.912;8.380;2023-12-07T11:52:24;10.80;55.60
28087;DHT22;15392;48.912;8.380;2023-12-07T11:55:12;10.80;55.60
28087;DHT22;15392;48.912;8.380;2023-12-07T11:58:01;10.80;55.80
28087;DHT22;15392;48.912;8.380;2023-12-07T12:00:52;10.90;55.90
28087;DHT22;15392;48.912;8.380;2023-12-07T12:03:39;10.90;56.00
28087;DHT22;15392;48.912;8.380;2023-12-07T12:06:25;10.90;56.00
28087;DHT22;15392;48.912;8.380;2023-12-07T12:09:13;10.90;55.80
28087;DHT22;15392;48.912;8.380;2023-12-07T12:12:03;10.90;55.80
28087;DHT22;15392;48.912;8.380;2023-12-07T12:14:49;10.90;55.90
28087;DHT22;15392;48.912;8.380;2023-12-07T12:17:37;11.00;55.30
28087;DHT22;15392;48.912;8.380;2023-12-07T12:20:24;10.90;54.20
28087;DHT22;15392;48.912;8.380;2023-12-07T12:23:10;10.90;53.30
28087;DHT22;15392;48.912;8.380;2023-12-07T12:25:57;10.90;53.80
28087;DHT22;15392;48.912;8.380;2023-12-07T12:28:44;10.90;52.40
28087;DHT22;15392;48.912;8.380;2023-12-07T12:31:30;11.00;52.60
28087;DHT22;15392;48.912;8.380;2023-12-07T12:34:22;11.00;51.40
28087;DHT22;15392;48.912;8.380;2023-12-07T12:37:09;11.00;52.20
28087;DHT22;15392;48.912;8.380;2023-12-07T12:39:58;11.10;51.90
28087;DHT22;15392;48.912;8.380;2023-12-07T12:42:47;11.10;50.40
28087;DHT22;15392;48.912;8.380;2023-12-07T12:45:35;11.10;50.60
28087;DHT22;15392;48.912;8.380;2023-12-07T12:48:21;11.20;50.10
28087;DHT22;15392;48.912;8.380;2023-12-07T12:51:08;11.20;49.40
28087;DHT22;15392;48.912;8.380;2023-12-07T12:53:57;11.20;50.40
28087;DHT22;15392;48.912;8.380;2023-12-07T12:56:45;11.20;49.60
28087;DHT22;15392;48.912;8.380;2023-12-07T12:59:31;11.20;50.10
28087;DHT22;15392;48.912;8.380;2023-12-07T13:02:20;11.20;49.90
28087;DHT22;15392;48.912;8.380;2023-12-07T13:05:06;11.20;51.10
28087;DHT22;15392;48.912;8.380;2023-12-07T13:07:52;11.20;52.00
28087;DHT22;15392;48.912;8.380;2023-12-07T13:10:39;11.30;51.80
28087;DHT22;15392;48.912;8.380;2023-12-07T13:13:26;11.30;52.30
28087;DHT22;15392;48.912;8.380;2023-12-07T13:16:12;11.40;52.10
28087;DHT22;15392;48.912;8.380;2023-12-07T13:18:58;11.40;52.50
28087;DHT22;15392;48.912;8.380;2023-12-07T13:21:44;11.40;53.40
28087;DHT22;15392;48.912;8.380;2023-12-07T13:24:30;11.50;54.00
28087;DHT22;15392;48.912;8.380;2023-12-07T13:27:16;11.50;54.30
28087;DHT22;15392;48.912;8.380;2023-12-07T13:30:04;11.50;54.60
28087;DHT22;15392;48.912;8.380;2023-12-07T13:32:53;11.50;54.80
28087;DHT22;15392;48.912;8.380;2023-12-07T13:35:39;11.50;54.90
28087;DHT22;15392;48.912;8.380;2023-12-07T13:38:25;11.50;55.00
28087;DHT22;15392;48.912;8.380;2023-12-07T13:41:14;11.40;55.10
28087;DHT22;15392;48.912;8.380;2023-12-07T13:44:00;11.40;55.10
28087;DHT22;15392;48.912;8.380;2023-12-07T13:46:47;11.40;55.10
28087;DHT22;15392;48.912;8.380;2023-12-07T13:49:33;11.40;55.20
28087;DHT22;15392;48.912;8.380;2023-12-07T13:52:19;11.30;55.10
28087;DHT22;15392;48.912;8.380;2023-12-07T13:55:06;11.30;55.70
28087;DHT22;15392;48.912;8.380;2023-12-07T13:57:53;11.30;55.20
28087;DHT22;15392;48.912;8.380;2023-12-07T14:00:43;11.20;55.10
28087;DHT22;15392;48.912;8.380;2023-12-07T14:03:32;11.10;55.20
28087;DHT22;15392;48.912;8.380;2023-12-07T14:06:22;11.10;55.30
28087;DHT22;15392;48.912;8.380;2023-12-07T14:09:12;11.00;55.40
28087;DHT22;15392;48.912;8.380;2023-12-07T14:11:58;10.90;55.40
28087;DHT22;15392;48.912;8.380;2023-12-07T14:14:46;10.90;55.50
28087;DHT22;15392;48.912;8.380;2023-12-07T14:17:35;10.80;55.60
28087;DHT22;15392;48.912;8.380;2023-12-07T14:20:27;10.80;55.60
28087;DHT22;15392;48.912;8.380;2023-12-07T14:23:13;10.70;55.80
28087;DHT22;15392;48.912;8.380;2023-12-07T14:26:01;10.70;55.70
28087;DHT22;15392;48.912;8.380;2023-12-07T14:28:47;10.60;55.80
28087;DHT22;15392;48.912;8.380;2023-12-07T14:31:33;10.60;55.90
28087;DHT22;15392;48.912;8.380;2023-12-07T14:34:19;10.50;55.90
28087;DHT22;15392;48.912;8.380;2023-12-07T14:37:06;10.50;56.00
28087;DHT22;15392;48.912;8.380;2023-12-07T14:39:53;10.40;56.00
28087;DHT22;15392;48.912;8.380;2023-12-07T14:42:47;10.40;56.00
28087;DHT22;15392;48.912;8.380;2023-12-07T14:45:33;10.40;56.00
28087;DHT22;15392;48.912;8.380;2023-12-07T14:48:22;10.30;56.40
28087;DHT22;15392;48.912;8.380;2023-12-07T14:51:09;10.30;56.10
28087;DHT22;15392;48.912;8.380;2023-12-07T14:53:55;10.20;56.10
28087;DHT22;15392;48.912;8.380;2023-12-07T14:56:41;10.20;56.20
28087;DHT22;15392;48.912;8.380;2023-12-07T14:59:28;10.20;56.20
28087;DHT22;15392;48.912;8.380;2023-12-07T15:02:15;10.10;56.20
28087;DHT22;15392;48.912;8.380;2023-12-07T15:05:01;10.10;56.20
28087;DHT22;15392;48.912;8.380;2023-12-07T15:07:47;10.10;56.30
28087;DHT22;15392;48.912;8.380;2023-12-07T15:10:33;10.00;56.20
28087;DHT22;15392;48.912;8.380;2023-12-07T15:13:25;9.90;56.10
28087;DHT22;15392;48.912;8.380;2023-12-07T15:16:11;9.90;56.20
28087;DHT22;15392;48.912;8.380;2023-12-07T15:18:58;9.80;56.20
28087;DHT22;15392;48.912;8.380;2023-12-07T15:21:44;9.80;56.20
28087;DHT22;15392;48.912;8.380;2023-12-07T15:24:30;9.70;56.30
28087;DHT22;15392;48.912;8.380;2023-12-07T15:27:16;9.60;56.30
28087;DHT22;15392;48.912;8.380;2023-12-07T15:30:02;9.60;56.30
28087;DHT22;15392;48.912;8.380;2023-12-07T15:32:52;9.60;56.30
28087;DHT22;15392;48.912;8.380;2023-12-07T15:35:42;9.50;56.30
28087;DHT22;15392;48.912;8.380;2023-12-07T15:38:28;9.40;56.20
28087;DHT22;15392;48.912;8.380;2023-12-07T15:41:18;9.40;56.30
28087;DHT22;15392;48.912;8.380;2023-12-07T15:44:04;9.30;56.30
28087;DHT22;15392;48.912;8.380;2023-12-07T15:46:50;9.30;56.40
28087;DHT22;15392;48.912;8.380;2023-12-07T15:49:38;9.20;56.40
28087;DHT22;15392;48.912;8.380;2023-12-07T15:52:27;9.20;56.40
28087;DHT22;15392;48.912;8.380;2023-12-07T15:55:13;9.10;56.40
28087;DHT22;15392;48.912;8.380;2023-12-07T15:58:03;9.10;56.30
28087;DHT22;15392;48.912;8.380;2023-12-07T16:00:49;9.00;56.20
28087;DHT22;15392;48.912;8.380;2023-12-07T16:03:35;8.90;56.20
28087;DHT22;15392;48.912;8.380;2023-12-07T16:06:21;8.90;56.30
28087;DHT22;15392;48.912;8.380;2023-12-07T16:09:07;8.80;56.30
28087;DHT22;15392;48.912;8.380;2023-12-07T16:11:55;8.80;55.90
28087;DHT22;15392;48.912;8.380;2023-12-07T16:14:42;8.70;55.60
28087;DHT22;15392;48.912;8.380;2023-12-07T16:17:28;8.70;55.00
28087;DHT22;15392;48.912;8.380;2023-12-07T16:20:15;8.70;55.00
28087;DHT22;15392;48.912;8.380;2023-12-07T16:23:02;8.70;54.70
28087;DHT22;15392;48.912;8.380;2023-12-07T16:25:47;8.70;54.30
28087;DHT22;15392;48.912;8.380;2023-12-07T16:28:33;8.70;54.20
28087;DHT22;15392;48.912;8.380;2023-12-07T16:31:22;8.70;54.50
28087;DHT22;15392;48.912;8.380;2023-12-07T16:34:21;8.70;54.30
28087;DHT22;15392;48.912;8.380;2023-12-07T16:37:07;8.70;54.30
28087;DHT22;15392;48.912;8.380;2023-12-07T16:39:53;8.80;54.60
28087;DHT22;15392;48.912;8.380;2023-12-07T16:42:42;8.70;54.80
28087;DHT22;15392;48.912;8.380;2023-12-07T16:45:28;8.70;55.20
28087;DHT22;15392;48.912;8.380;2023-12-07T16:48:14;8.70;55.50
28087;DHT22;15392;48.912;8.380;2023-12-07T16:51:01;8.70;55.70
28087;DHT22;15392;48.912;8.380;2023-12-07T16:53:48;8.70;55.80
28087;DHT22;15392;48.912;8.380;2023-12-07T16:56:34;8.60;56.00
28087;DHT22;15392;48.912;8.380;2023-12-07T16:59:21;8.60;56.00
28087;DHT22;15392;48.912;8.380;2023-12-07T17:02:07;8.50;56.10
28087;DHT22;15392;48.912;8.380;2023-12-07T17:04:53;8.50;56.20
28087;DHT22;15392;48.912;8.380;2023-12-07T17:07:39;8.40;56.30
28087;DHT22;15392;48.912;8.380;2023-12-07T17:10:35;8.40;56.50
28087;DHT22;15392;48.912;8.380;2023-12-07T17:13:30;8.40;56.60
28087;DHT22;15392;48.912;8.380;2023-12-07T17:16:16;8.30;56.60
28087;DHT22;15392;48.912;8.380;2023-12-07T17:19:02;8.30;56.70
28087;DHT22;15392;48.912;8.380;2023-12-07T17:21:49;8.30;56.80
28087;DHT22;15392;48.912;8.380;2023-12-07T17:24:39;8.20;56.70
28087;DHT22;15392;48.912;8.380;2023-12-07T17:27:25;8.20;56.80
28087;DHT22;15392;48.912;8.380;2023-12-07T17:30:11;8.20;56.70
28087;DHT22;15392;48.912;8.380;2023-12-07T17:32:57;8.10;56.70
28087;DHT22;15392;48.912;8.380;2023-12-07T17:35:44;8.10;56.80
28087;DHT22;15392;48.912;8.380;2023-12-07T17:38:31;8.10;56.90
28087;DHT22;15392;48.912;8.380;2023-12-07T17:41:19;8.10;57.00
28087;DHT22;15392;48.912;8.380;2023-12-07T17:44:05;8.00;56.90
28087;DHT22;15392;48.912;8.380;2023-12-07T17:46:51;8.00;56.90
28087;DHT22;15392;48.912;8.380;2023-12-07T17:49:37;8.00;56.90
28087;DHT22;15392;48.912;8.380;2023-12-07T17:52:24;8.00;57.00